Terminal Aerodrome Forecast
Issued by NWS

Current Version | Previous Version | Text Only | Print | Product List | Glossary On
Versions: 1 2 3 4 5 6 7 8 9 10 11 12 13
000
FTUS45 KRIW 231100
TAFCOD
TAF
KCOD 231140Z 2312/2412 VRB05KT P6SM VCSH OVC030
     FM231500 35007KT P6SM VCSH SCT040 BKN070
     FM232100 36014G20KT P6SM -SHRA OVC025
     FM240100 35011KT P6SM -SHRA OVC015
     FM241000 VRB05KT P6SM BKN030
      AMD LTD TO CLD VIS AND WIND=

USA.gov is the U.S. government's official web portal to all federal, state and local government web resources and services.